Time;durP1;ratioP1;P1;durP2;ratioP2;P2;SDS_P1;SDS_P2;PMS_P1;PMS_P2;Temp;Humidity;BMP_temperature;BMP_pressure;BME280_temperature;BME280_humidity;BME280_pressure;Samples;Min_cycle;Max_cycle;Signal;HPM_P1;HPM_P2
2023/06/05 00:00:48;;;;;;;11.25;7.90;;;16.60;99.90;;;17.06;70.33;102216.34;5085034;28;20040;-67
2023/06/05 00:03:17;;;;;;;10.57;7.40;;;16.60;99.90;;;17.08;70.12;102219.91;5081916;28;20074;-66
2023/06/05 00:05:46;;;;;;;11.00;7.95;;;16.70;99.90;;;17.02;70.23;102211.94;5078272;28;20052;-67
2023/06/05 00:08:17;;;;;;;9.57;7.55;;;16.70;99.90;;;17.08;70.49;102219.00;5084491;28;20129;-66
2023/06/05 00:10:45;;;;;;;8.57;7.40;;;16.60;99.90;;;17.03;70.37;102216.38;5083021;28;20052;-68
2023/06/05 00:13:14;;;;;;;9.57;7.60;;;16.60;99.90;;;16.97;70.62;102213.78;5083857;28;20051;-68
2023/06/05 00:15:42;;;;;;;8.55;7.13;;;16.60;99.90;;;17.01;70.50;102226.19;5083848;28;20056;-67
2023/06/05 00:18:11;;;;;;;11.75;8.50;;;16.60;99.90;;;17.04;70.57;102226.19;5082607;28;20052;-67
2023/06/05 00:20:40;;;;;;;9.73;7.85;;;16.60;99.90;;;17.02;70.83;102219.06;5084332;28;20052;-67
2023/06/05 00:23:11;;;;;;;12.35;8.23;;;16.60;99.90;;;17.03;70.71;102226.19;5081660;28;20175;-67
2023/06/05 00:25:41;;;;;;;10.70;8.07;;;16.60;99.90;;;17.06;70.64;102224.38;5077826;28;20052;-67
2023/06/05 00:28:10;;;;;;;9.00;8.07;;;16.60;99.90;;;16.97;70.94;102221.78;5084351;28;20063;-67
2023/06/05 00:30:38;;;;;;;10.43;8.00;;;16.60;99.90;;;17.06;70.85;102224.38;5082197;28;20571;-67
2023/06/05 00:33:07;;;;;;;9.75;8.50;;;16.60;99.90;;;17.03;70.93;102223.53;5083384;28;20058;-67
2023/06/05 00:35:36;;;;;;;9.20;8.30;;;16.60;99.90;;;17.04;70.82;102217.25;5083054;28;20079;-67
2023/06/05 00:38:06;;;;;;;9.23;8.30;;;16.60;99.90;;;17.00;71.12;102227.09;5081224;28;20135;-67
2023/06/05 00:40:34;;;;;;;;;;;16.50;99.90;;;17.00;71.22;102224.44;5084618;28;20044;-67
2023/06/05 00:43:05;;;;;;;11.00;8.77;;;16.60;99.90;;;16.94;70.95;102218.22;5081342;28;20381;-67
2023/06/05 00:45:35;;;;;;;10.75;9.18;;;16.60;99.90;;;16.96;71.12;102211.97;5060222;28;20083;-67
2023/06/05 00:48:04;;;;;;;9.65;8.63;;;16.50;99.90;;;16.93;71.42;102214.69;5083847;28;20044;-66
2023/06/05 00:50:33;;;;;;;13.77;9.13;;;16.50;99.90;;;16.85;71.39;102215.66;5080872;28;20139;-67
2023/06/05 00:53:05;;;;;;;12.35;9.63;;;16.40;99.90;;;16.87;71.43;102217.41;5081487;28;20143;-67
2023/06/05 00:55:33;;;;;;;14.23;9.23;;;16.50;99.90;;;16.84;71.73;102213.91;5083155;28;20048;-67
2023/06/05 00:58:03;;;;;;;12.13;9.70;;;16.40;99.90;;;16.82;71.61;102205.00;5081660;28;20071;-67
2023/06/05 01:00:32;;;;;;;12.70;9.90;;;16.40;99.90;;;16.81;72.22;102212.13;5084173;28;20504;-67
2023/06/05 01:03:01;;;;;;;12.75;10.07;;;16.40;99.90;;;16.74;71.98;102210.38;5079586;28;20052;-67
2023/06/05 01:05:30;;;;;;;12.27;9.23;;;16.30;99.90;;;16.76;71.85;102210.41;5077434;28;20055;-66
2023/06/05 01:08:02;;;;;;;11.93;9.88;;;16.30;99.90;;;16.72;72.13;102209.53;5083645;28;20133;-66
2023/06/05 01:10:32;;;;;;;10.35;9.32;;;16.30;99.90;;;16.77;72.00;102212.16;5082216;28;20048;-66
2023/06/05 01:13:12;;;;;;;10.67;9.50;;;16.30;99.90;;;16.70;72.21;102211.34;5098039;28;20074;-66
2023/06/05 01:15:41;;;;;;;14.05;9.63;;;16.30;99.90;;;16.64;72.43;102213.16;5077363;28;20055;-67
2023/06/05 01:18:10;;;;;;;14.25;10.60;;;16.20;99.90;;;16.63;72.49;102198.91;5083237;28;20052;-67
2023/06/05 01:20:41;;;;;;;12.55;9.98;;;16.20;99.90;;;16.68;72.71;102197.09;5081651;28;20505;-67
2023/06/05 01:23:11;;;;;;;13.38;10.43;;;16.20;99.90;;;16.66;72.83;102204.25;5082306;28;20140;-66
2023/06/05 01:25:41;;;;;;;11.48;10.02;;;16.20;99.90;;;16.65;73.05;102209.56;5082019;28;20063;-66
2023/06/05 01:28:17;;;;;;;14.32;9.98;;;16.20;99.90;;;16.66;73.05;102201.56;5079950;28;20051;-67
2023/06/05 01:30:53;;;;;;;13.32;10.38;;;16.20;99.90;;;16.62;72.61;102194.47;5077496;28;20094;-67
2023/06/05 01:33:28;;;;;;;10.88;9.75;;;16.20;99.90;;;16.60;72.76;102201.63;5081013;28;20062;-66
2023/06/05 01:36:04;;;;;;;12.38;9.77;;;16.20;99.90;;;16.50;72.86;102197.22;5083799;28;20051;-66
2023/06/05 01:38:36;;;;;;;15.23;10.85;;;16.20;99.90;;;16.57;73.14;102200.75;5059769;28;20037;-66
2023/06/05 01:41:06;;;;;;;13.05;10.27;;;16.10;99.90;;;15.75;72.81;102064.25;5097500;28;20048;-66
2023/06/05 01:43:36;;;;;;;10.88;9.75;;;16.10;99.90;;;16.54;73.20;102204.31;5082127;28;20048;-66
2023/06/05 01:46:07;;;;;;;15.83;10.70;;;16.10;99.90;;;16.59;73.27;102198.97;5098382;28;20072;-67
2023/06/05 01:48:38;;;;;;;12.63;10.65;;;16.10;99.90;;;16.45;73.33;102193.69;5080844;28;20402;-66
2023/06/05 01:51:08;;;;;;;14.32;10.75;;;16.10;99.90;;;16.45;73.48;102195.47;5076879;28;20036;-66
2023/06/05 01:53:38;;;;;;;12.65;10.98;;;16.00;99.90;;;16.39;73.79;102195.50;5082080;28;20508;-66
2023/06/05 01:56:08;;;;;;;12.70;11.03;;;16.00;99.90;;;16.41;73.80;102181.25;5081441;28;20049;-66
2023/06/05 01:58:36;;;;;;;16.20;11.73;;;16.00;99.90;;;16.43;73.67;102186.56;5080847;28;20044;-66
2023/06/05 02:01:05;;;;;;;13.25;11.85;;;16.00;99.90;;;16.40;74.16;102181.25;5081185;28;20130;-66
2023/06/05 02:03:34;;;;;;;12.98;10.90;;;15.90;99.90;;;16.40;74.17;102189.25;5081399;28;20044;-67
2023/06/05 02:06:03;;;;;;;15.52;11.15;;;15.90;99.90;;;16.38;74.01;102183.03;5083266;28;20037;-66
2023/06/05 02:08:31;;;;;;;12.43;10.20;;;15.90;99.90;;;16.40;73.96;102181.25;5080084;28;20056;-66
2023/06/05 02:11:02;;;;;;;12.73;11.20;;;16.00;99.90;;;16.33;73.99;102180.41;5083832;28;20088;-66
2023/06/05 02:13:33;;;;;;;;;;;15.90;99.90;;;16.35;73.93;102173.28;5093393;28;20425;-66
2023/06/05 02:16:02;;;;;;;15.88;11.90;;;15.90;99.90;;;16.34;74.09;102181.31;5098366;28;19920;-67
2023/06/05 02:18:32;;;;;;;13.48;11.20;;;15.90;99.90;;;16.29;73.99;102176.00;5081862;28;20049;-66
2023/06/05 02:21:00;;;;;;;12.38;10.65;;;15.90;99.90;;;16.33;73.93;102180.41;5080117;28;20125;-66
2023/06/05 02:23:29;;;;;;;12.15;10.85;;;15.90;99.90;;;16.25;73.92;102182.25;5082559;28;20646;-66
2023/06/05 02:25:57;;;;;;;14.00;10.93;;;15.80;99.90;;;16.30;74.04;102175.06;5080725;28;20047;-66
2023/06/05 02:28:27;;;;;;;17.30;11.52;;;15.90;99.90;;;16.24;73.85;102180.44;5083265;28;20147;-67
2023/06/05 02:30:56;;;;;;;12.93;11.23;;;15.80;99.90;;;16.05;74.34;102150.34;5061781;28;20056;-66
2023/06/05 02:33:24;;;;;;;14.82;11.68;;;15.80;99.90;;;16.21;74.36;102175.16;5086781;28;20058;-66
2023/06/05 02:35:53;;;;;;;13.38;11.90;;;15.80;99.90;;;16.12;74.16;102162.72;5084154;28;20098;-66
2023/06/05 02:38:23;;;;;;;16.73;11.45;;;15.80;99.90;;;16.25;74.18;102187.59;5101705;28;20493;-67
2023/06/05 02:40:52;;;;;;;16.65;11.45;;;15.80;99.90;;;16.15;74.56;102172.50;5067874;28;20455;-67
2023/06/05 02:43:21;;;;;;;16.67;11.82;;;15.80;99.90;;;16.18;74.49;102184.06;5083507;28;20040;-67
2023/06/05 02:45:51;;;;;;;15.93;11.80;;;15.80;99.90;;;16.10;74.51;102175.19;5101636;28;20485;-67
2023/06/05 02:48:21;;;;;;;15.00;12.52;;;15.70;99.90;;;16.12;74.54;102170.75;5083450;28;20451;-67
2023/06/05 02:50:51;;;;;;;16.00;12.02;;;15.70;99.90;;;16.10;74.59;102172.53;5112005;27;20409;-67
2023/06/05 02:53:20;;;;;;;13.68;11.27;;;15.70;99.90;;;16.09;74.58;102178.78;5085471;28;20047;-66
2023/06/05 02:55:49;;;;;;;14.10;12.65;;;15.70;99.90;;;16.14;74.94;102173.44;5084014;28;20045;-67
2023/06/05 02:58:19;;;;;;;18.42;12.35;;;15.70;99.90;;;15.64;75.03;102079.44;5084044;28;20056;-66
2023/06/05 03:00:55;;;;;;;16.40;12.43;;;15.70;99.90;;;16.06;74.60;102170.81;5084292;28;20059;-66
2023/06/05 03:03:26;;;;;;;15.50;11.88;;;15.70;99.90;;;16.09;75.03;102167.22;5083154;28;20059;-66
2023/06/05 03:05:55;;;;;;;15.30;11.68;;;15.60;99.90;;;15.99;75.15;102165.47;5095240;28;20506;-67
2023/06/05 03:08:24;;;;;;;15.32;12.68;;;15.50;99.90;;;16.02;75.16;102157.47;5085668;28;20048;-66
2023/06/05 03:10:52;;;;;;;15.30;12.43;;;15.50;99.90;;;16.01;75.14;102161.91;5099512;28;20147;-66
2023/06/05 03:13:22;;;;;;;14.52;11.90;;;15.50;99.90;;;15.36;75.17;102044.00;5083433;28;20090;-67
2023/06/05 03:15:53;;;;;;;13.25;11.75;;;15.50;99.90;;;15.97;75.37;102156.59;5084567;28;20040;-67
2023/06/05 03:18:24;;;;;;;15.85;12.52;;;15.50;99.90;;;15.94;75.34;102153.97;5082385;28;20049;-66
2023/06/05 03:20:56;;;;;;;14.50;11.80;;;15.60;99.90;;;15.97;75.50;102162.84;5061190;28;20057;-67
2023/06/05 03:23:27;;;;;;;14.43;11.95;;;15.60;99.90;;;15.99;75.59;102157.47;5098529;28;20072;-67
2023/06/05 03:25:58;;;;;;;13.05;11.48;;;15.60;99.90;;;15.99;75.25;102155.69;5083547;28;20449;-67
2023/06/05 03:28:27;;;;;;;13.95;11.80;;;15.60;99.90;;;15.95;75.40;102161.09;5067181;28;20416;-66
2023/06/05 03:30:58;;;;;;;16.38;12.60;;;15.50;99.90;;;15.96;75.55;102158.41;5082503;28;20036;-67
2023/06/05 03:33:32;;;;;;;17.25;12.52;;;15.50;99.90;;;15.98;75.27;102153.94;5084607;28;20059;-68
2023/06/05 03:36:01;;;;;;;15.57;11.82;;;15.50;99.90;;;16.00;75.32;102159.28;5085933;28;20055;-67
2023/06/05 03:38:31;;;;;;;15.93;12.05;;;15.60;99.90;;;15.93;75.66;102158.41;5065402;28;20532;-67
2023/06/05 03:41:00;;;;;;;12.70;11.30;;;15.50;99.90;;;15.88;75.61;102159.34;5117212;27;20072;-67
2023/06/05 03:43:28;;;;;;;14.07;10.98;;;15.40;99.90;;;15.92;75.63;102153.09;5066348;28;20045;-67
2023/06/05 03:45:58;;;;;;;14.57;11.75;;;15.40;99.90;;;15.85;76.15;102152.22;5082443;28;20520;-67
2023/06/05 03:48:26;;;;;;;14.10;11.68;;;15.40;99.90;;;15.88;75.83;102151.31;5083163;28;20048;-67
2023/06/05 03:50:57;;;;;;;14.60;11.75;;;15.40;99.90;;;15.96;75.57;102153.06;5098365;28;20045;-66
2023/06/05 03:53:29;;;;;;;14.88;11.88;;;15.50;99.90;;;15.91;75.86;102157.53;5060888;28;20409;-66
2023/06/05 03:55:59;;;;;;;12.55;11.15;;;15.50;99.90;;;15.94;75.33;102151.28;5091603;28;20052;-66
2023/06/05 03:58:34;;;;;;;14.23;10.90;;;15.50;99.90;;;15.91;75.48;102159.34;5082782;28;20060;-66
2023/06/05 04:01:03;;;;;;;14.45;11.65;;;15.50;99.90;;;15.90;75.72;102149.53;5066750;28;20044;-66
2023/06/05 04:03:32;;;;;;;15.50;12.23;;;15.50;99.90;;;15.90;75.72;102152.19;5082610;28;20516;-67
2023/06/05 04:06:02;;;;;;;16.92;11.63;;;15.50;99.90;;;15.93;75.41;102166.41;5084969;28;20044;-66
2023/06/05 04:08:31;;;;;;;15.02;11.60;;;15.50;99.90;;;15.86;75.61;102159.34;5097286;28;20130;-66
2023/06/05 04:11:00;;;;;;;14.23;12.23;;;15.40;99.90;;;15.90;75.49;102165.53;5077994;28;20118;-67
2023/06/05 04:13:29;;;;;;;21.40;12.38;;;15.50;99.90;;;15.91;75.40;102170.88;5083286;28;20048;-67
2023/06/05 04:15:58;;;;;;;15.48;11.48;;;15.40;99.90;;;15.91;75.42;102172.69;5081274;28;20135;-66
2023/06/05 04:18:28;;;;;;;16.65;12.07;;;15.50;99.90;;;15.87;75.75;102173.59;5083794;28;20044;-67
2023/06/05 04:20:57;;;;;;;;;;;15.50;99.90;;;15.95;75.89;102172.63;5066724;28;20460;-66
2023/06/05 04:23:27;;;;;;;14.43;11.85;;;15.50;99.90;;;15.96;75.57;102171.75;5081298;28;20373;-67
2023/06/05 04:25:56;;;;;;;13.60;11.85;;;15.60;99.90;;;15.98;75.27;102182.41;5084458;28;20048;-66
2023/06/05 04:28:25;;;;;;;13.77;11.38;;;15.60;99.90;;;15.97;75.60;102180.63;5080051;28;20509;-67
2023/06/05 04:30:55;;;;;;;14.00;11.38;;;15.50;99.90;;;15.97;75.39;102180.63;5110557;27;20040;-66
2023/06/05 04:33:24;;;;;;;16.23;11.85;;;15.50;99.90;;;15.96;75.58;102177.09;5099720;28;20044;-66
2023/06/05 04:35:54;;;;;;;16.63;11.75;;;15.50;99.90;;;16.01;75.18;102171.69;5098048;28;20048;-66
2023/06/05 04:38:27;;;;;;;13.48;11.35;;;15.60;99.90;;;15.99;75.40;102169.06;5081528;28;20383;-67
2023/06/05 04:40:56;;;;;;;16.27;11.73;;;15.60;99.90;;;15.90;75.12;102162.88;5066295;28;20047;-66
2023/06/05 04:43:24;;;;;;;17.02;12.05;;;15.60;99.90;;;16.06;74.92;102183.25;5081500;28;20473;-66
2023/06/05 04:45:53;;;;;;;13.70;11.30;;;15.60;99.90;;;16.05;75.11;102184.13;5084488;28;20519;-66
2023/06/05 04:48:22;;;;;;;14.10;11.43;;;15.60;99.90;;;16.07;75.01;102179.69;5076296;28;20060;-67
2023/06/05 04:50:53;;;;;;;17.85;11.55;;;15.70;99.90;;;16.15;75.08;102191.19;5084263;28;20079;-67
2023/06/05 04:53:21;;;;;;;12.90;10.93;;;15.70;99.90;;;16.17;75.01;102184.97;5079845;28;20102;-67
2023/06/05 04:55:51;;;;;;;15.10;10.75;;;15.70;99.90;;;16.18;74.79;102177.84;5081666;28;20451;-67
2023/06/05 04:58:21;;;;;;;12.85;11.07;;;15.80;99.90;;;16.18;74.88;102184.06;5081686;28;20037;-67
2023/06/05 05:00:50;;;;;;;14.38;11.50;;;15.70;99.90;;;16.18;74.59;102183.19;5080609;28;20055;-66
2023/06/05 05:03:20;;;;;;;12.60;10.68;;;15.80;99.90;;;16.31;74.58;102198.22;5083031;28;20066;-67
2023/06/05 05:05:49;;;;;;;13.32;10.93;;;15.80;99.90;;;16.32;74.51;102186.63;5075369;28;20055;-67
2023/06/05 05:08:18;;;;;;;12.07;10.75;;;15.90;99.90;;;16.36;74.56;102190.16;5092479;28;20060;-67
2023/06/05 05:10:47;;;;;;;12.95;10.25;;;15.90;99.90;;;16.38;74.29;102191.03;5080215;28;20045;-68
2023/06/05 05:13:17;;;;;;;15.27;10.82;;;15.90;99.90;;;16.34;74.09;102175.97;5115944;27;20423;-67
2023/06/05 05:15:46;;;;;;;10.95;9.85;;;16.00;99.90;;;16.46;74.43;102178.53;5064867;28;20048;-67
2023/06/05 05:18:16;;;;;;;13.35;10.75;;;16.10;99.90;;;16.46;74.17;102187.44;5080743;28;20055;-67
2023/06/05 05:20:45;;;;;;;15.93;11.00;;;16.10;99.90;;;16.46;74.06;102176.75;5098837;28;20071;-67
2023/06/05 05:23:14;;;;;;;14.52;10.68;;;16.10;99.90;;;16.49;74.40;102187.44;5079950;28;20083;-67
2023/06/05 05:25:45;;;;;;;13.43;10.13;;;16.10;99.90;;;16.54;74.12;102188.31;5076707;28;20047;-67
2023/06/05 05:28:15;;;;;;;12.50;11.10;;;16.10;99.90;;;16.46;73.98;102187.44;5082554;28;20127;-67
2023/06/05 05:30:45;;;;;;;13.57;10.18;;;16.10;99.90;;;16.57;74.29;102190.94;5080117;28;20382;-67
2023/06/05 05:33:14;;;;;;;11.82;10.68;;;16.20;99.90;;;16.57;74.03;102188.25;5082458;28;20126;-67
2023/06/05 05:35:43;;;;;;;12.32;11.02;;;16.20;99.90;;;16.63;74.07;102190.00;5081314;28;20045;-67
2023/06/05 05:38:13;;;;;;;13.55;10.98;;;16.20;99.90;;;16.70;73.99;102192.63;5080272;28;20058;-67
2023/06/05 05:40:42;;;;;;;14.43;10.95;;;16.30;99.90;;;16.77;74.33;102186.31;5099142;28;20048;-67
2023/06/05 05:43:11;;;;;;;11.93;10.73;;;16.40;99.90;;;16.90;74.08;102193.31;5113130;27;20045;-67
2023/06/05 05:45:42;;;;;;;14.15;11.25;;;16.50;99.90;;;17.00;73.79;102187.00;5091881;28;20044;-67
2023/06/05 05:48:12;;;;;;;14.77;11.10;;;16.60;99.90;;;17.09;73.50;102186.91;5083325;28;20044;-67
2023/06/05 05:50:41;;;;;;;13.03;10.50;;;16.70;99.90;;;17.14;73.07;102182.41;5080299;28;20493;-67
2023/06/05 05:53:10;;;;;;;13.60;11.07;;;16.70;99.90;;;17.00;72.69;102176.31;5082170;28;20290;-67
2023/06/05 05:55:38;;;;;;;12.90;10.18;;;16.70;99.90;;;17.07;72.59;102182.50;5082203;28;20040;-67
2023/06/05 05:58:06;;;;;;;11.70;9.70;;;16.70;99.90;;;16.94;72.47;102179.03;5081363;28;20044;-67
2023/06/05 06:00:35;;;;;;;10.05;9.05;;;16.60;99.90;;;17.08;72.49;102189.59;5082882;28;20452;-67
2023/06/05 06:03:07;;;;;;;12.50;9.70;;;16.70;99.90;;;17.15;72.40;102186.84;5080704;28;20048;-67
2023/06/05 06:05:37;;;;;;;11.68;9.45;;;16.80;99.90;;;17.23;72.52;102193.91;5080252;28;20045;-67
2023/06/05 06:08:06;;;;;;;14.82;10.40;;;16.80;99.90;;;17.22;72.18;102194.81;5086879;28;20063;-67
2023/06/05 06:10:34;;;;;;;14.52;9.80;;;16.80;99.90;;;17.17;71.42;102193.97;5085016;28;20045;-67
2023/06/05 06:13:04;;;;;;;17.05;10.48;;;16.80;99.90;;;17.22;71.38;102193.03;5085772;28;20059;-67
2023/06/05 06:15:32;;;;;;;10.63;9.52;;;16.80;99.90;;;17.30;71.37;102192.94;5085839;28;20048;-67
2023/06/05 06:18:02;;;;;;;13.77;10.32;;;16.90;99.90;;;17.29;71.35;102194.72;5085210;28;20135;-67
2023/06/05 06:20:30;;;;;;;12.82;10.38;;;16.90;99.90;;;17.34;71.17;102187.53;5086851;28;20047;-67
2023/06/05 06:23:02;;;;;;;12.18;9.43;;;17.00;99.90;;;17.37;70.67;102189.28;5083861;28;20040;-67
2023/06/05 06:25:31;;;;;;;10.30;9.27;;;17.00;99.90;;;17.49;70.41;102198.09;5080017;28;20036;-67
2023/06/05 06:28:02;;;;;;;11.20;9.75;;;17.10;99.90;;;17.42;69.86;102192.81;5087136;28;20094;-67
2023/06/05 06:30:30;;;;;;;;;;;17.10;99.90;;;17.47;70.25;102186.50;5085197;28;20053;-67
2023/06/05 06:33:03;;;;;;;10.43;9.32;;;17.20;99.90;;;17.69;70.11;102200.53;5085202;28;19927;-68
2023/06/05 06:35:32;;;;;;;9.95;8.90;;;17.30;99.90;;;17.82;70.02;102207.50;5086205;28;20056;-67
2023/06/05 06:38:02;;;;;;;13.15;10.43;;;17.40;99.90;;;17.86;69.52;102203.88;5083781;28;20040;-67
2023/06/05 06:40:31;;;;;;;12.88;9.45;;;17.50;99.90;;;17.88;68.51;102207.44;5086104;28;20127;-67
2023/06/05 06:42:59;;;;;;;10.13;8.88;;;17.50;99.90;;;17.84;68.45;102200.34;5078472;28;20048;-67
2023/06/05 06:45:40;;;;;;;11.32;9.80;;;17.50;99.90;;;17.86;68.97;102201.22;5083598;28;20122;-67
2023/06/05 06:48:09;;;;;;;13.05;10.30;;;17.50;99.90;;;17.81;68.48;102184.31;5085586;28;20121;-67
2023/06/05 06:50:38;;;;;;;12.63;10.35;;;17.50;99.90;;;17.85;67.79;102197.63;5082350;28;20065;-67
2023/06/05 06:53:08;;;;;;;10.90;9.75;;;17.50;99.90;;;17.88;67.90;102204.75;5086404;28;20051;-67
2023/06/05 06:55:36;;;;;;;11.68;9.25;;;17.50;99.90;;;17.85;68.26;102199.41;5086717;28;20052;-67
2023/06/05 06:58:05;;;;;;;11.40;9.80;;;17.50;99.90;;;17.95;68.15;102207.34;5083455;28;20047;-67
2023/06/05 07:00:33;;;;;;;10.50;9.18;;;17.60;99.90;;;18.08;68.06;102194.63;5085728;28;20036;-67
2023/06/05 07:03:02;;;;;;;10.75;9.20;;;17.70;99.90;;;18.20;67.45;102201.63;5099779;28;20052;-67
2023/06/05 07:05:31;;;;;;;10.82;9.73;;;17.80;99.90;;;18.24;67.18;102201.56;5084975;28;20044;-67
2023/06/05 07:08:00;;;;;;;16.35;9.65;;;17.90;99.90;;;18.34;67.20;102205.88;5084789;28;20052;-67
2023/06/05 07:10:31;;;;;;;11.70;9.13;;;17.90;99.90;;;18.42;66.61;102216.47;5082486;28;20098;-68
2023/06/05 07:13:00;;;;;;;10.18;9.18;;;18.10;99.90;;;18.31;66.27;102203.22;5101639;28;20052;-67
2023/06/05 07:15:28;;;;;;;13.20;9.60;;;18.10;99.90;;;18.62;66.52;102217.97;5081761;28;20078;-68
2023/06/05 07:17:56;;;;;;;10.63;9.30;;;18.20;99.90;;;18.67;66.12;102217.91;5082563;28;20050;-68
2023/06/05 07:20:25;;;;;;;8.80;7.95;;;18.30;99.90;;;18.75;65.43;102214.22;5085802;28;20036;-68
2023/06/05 07:22:53;;;;;;;9.63;8.35;;;18.40;99.90;;;18.78;65.19;102219.50;5083470;28;20505;-68
2023/06/05 07:25:24;;;;;;;10.00;8.48;;;18.40;99.90;;;18.93;64.88;102223.69;5084923;28;20493;-68
2023/06/05 07:27:54;;;;;;;12.88;8.90;;;18.50;99.90;;;19.01;64.11;102226.28;5066941;28;20040;-68
2023/06/05 07:30:22;;;;;;;12.02;9.43;;;18.60;99.90;;;19.03;64.44;102213.72;5083868;28;20048;-67
2023/06/05 07:32:51;;;;;;;10.85;8.90;;;18.70;99.90;;;19.03;64.07;102195.81;5085672;28;20044;-67
2023/06/05 07:35:20;;;;;;;11.13;8.38;;;18.80;99.90;;;19.28;63.90;102225.78;5082769;28;20079;-68
2023/06/05 07:37:49;;;;;;;9.57;8.68;;;18.90;99.90;;;19.46;63.34;102214.72;5086288;28;20044;-68
2023/06/05 07:40:18;;;;;;;11.18;8.63;;;19.10;99.90;;;19.41;62.91;102204.09;5085673;28;20069;-68
2023/06/05 07:42:46;;;;;;;10.38;8.30;;;19.20;99.90;;;19.36;62.23;102186.28;5098352;28;20044;-68
2023/06/05 07:45:16;;;;;;;12.35;9.15;;;19.20;99.90;;;19.53;62.09;102224.44;5100636;28;20052;-67
2023/06/05 07:47:45;;;;;;;11.30;8.57;;;19.20;99.90;;;19.60;62.40;102221.59;5083602;28;20052;-68
2023/06/05 07:50:13;;;;;;;13.82;9.25;;;19.30;99.90;;;19.75;61.87;102220.41;5083638;28;20040;-68
2023/06/05 07:52:43;;;;;;;10.05;8.25;;;19.40;99.90;;;19.75;62.24;102223.97;5084212;28;20048;-67
2023/06/05 07:55:11;;;;;;;12.23;9.45;;;19.40;99.90;;;19.67;61.16;102223.25;5082596;28;20060;-67
2023/06/05 07:57:39;;;;;;;9.93;8.70;;;19.30;99.90;;;19.77;61.26;102222.16;5084992;28;20040;-67
2023/06/05 08:00:10;;;;;;;11.10;9.07;;;19.40;99.90;;;19.78;61.43;102220.34;5081857;28;20106;-67
2023/06/05 08:02:43;;;;;;;12.38;7.70;;;19.40;99.90;;;19.90;61.50;102230.81;5079476;28;20044;-67
2023/06/05 08:05:12;;;;;;;;;;;19.50;99.90;;;19.85;60.58;102219.28;5084459;28;20417;-68
2023/06/05 08:07:41;;;;;;;10.35;7.88;;;19.60;99.90;;;19.95;60.69;102217.28;5082867;28;20015;-67
2023/06/05 08:10:10;;;;;;;9.75;8.07;;;19.60;99.90;;;20.01;60.34;102218.06;5082922;28;20040;-67
2023/06/05 08:12:39;;;;;;;10.55;8.38;;;19.70;99.90;;;20.10;60.60;102215.16;5082633;28;20048;-67
2023/06/05 08:15:09;;;;;;;9.50;8.52;;;19.70;99.90;;;20.09;60.26;102213.38;5082039;28;20505;-67
2023/06/05 08:17:37;;;;;;;10.38;8.65;;;19.80;99.90;;;20.22;59.94;102214.03;5085160;28;20052;-68
2023/06/05 08:20:10;;;;;;;9.90;8.38;;;19.80;99.90;;;20.31;59.57;102217.41;5077413;28;20048;-67
2023/06/05 08:22:40;;;;;;;9.52;8.52;;;19.90;99.90;;;20.39;59.33;102215.41;5084252;28;20136;-67
2023/06/05 08:25:09;;;;;;;10.70;8.55;;;20.10;99.90;;;20.47;58.88;102216.13;5083001;28;20056;-67
2023/06/05 08:27:37;;;;;;;11.52;7.32;;;20.10;99.90;;;20.59;58.96;102217.66;5082882;28;20040;-67
2023/06/05 08:30:08;;;;;;;10.57;7.93;;;20.20;99.90;;;20.63;58.88;102222.88;5083824;28;20045;-67
2023/06/05 08:32:36;;;;;;;9.25;7.80;;;20.30;99.90;;;20.53;57.66;102218.69;5081742;28;20418;-67
2023/06/05 08:35:07;;;;;;;10.52;8.35;;;20.20;99.90;;;20.56;57.64;102213.22;5100300;28;20044;-67
2023/06/05 08:37:36;;;;;;;10.70;8.00;;;20.20;99.90;;;20.54;57.74;102214.16;5093337;28;20521;-67
2023/06/05 08:40:10;;;;;;;10.10;8.10;;;20.20;99.90;;;20.59;56.78;102210.47;5084149;28;20139;-67
2023/06/05 08:42:38;;;;;;;8.30;7.50;;;20.20;99.90;;;20.64;57.08;102213.91;5082756;28;20045;-67
2023/06/05 08:45:09;;;;;;;11.70;7.95;;;20.30;99.90;;;20.71;56.96;102213.78;5081095;28;20059;-67
2023/06/05 08:47:41;;;;;;;9.48;7.72;;;20.30;99.90;;;20.72;57.03;102212.84;5083866;28;20052;-67
2023/06/05 08:50:11;;;;;;;10.40;7.57;;;20.30;99.90;;;20.93;57.41;102210.50;5081023;28;20107;-67
2023/06/05 08:52:45;;;;;;;10.23;8.00;;;20.50;99.90;;;20.83;55.76;102200.03;5077503;28;20111;-68
2023/06/05 08:55:13;;;;;;;10.65;7.28;;;20.60;99.90;;;20.78;55.97;102202.81;5083247;28;20048;-67
2023/06/05 08:57:43;;;;;;;9.63;8.63;;;20.50;99.90;;;20.61;56.88;102200.53;5082440;28;20116;-67
2023/06/05 09:00:14;;;;;;;11.30;8.13;;;20.30;99.90;;;20.75;56.13;102202.00;5082312;28;20460;-68
2023/06/05 09:02:46;;;;;;;8.57;7.72;;;20.40;99.90;;;20.70;57.47;102210.19;5083860;28;20055;-67
2023/06/05 09:05:17;;;;;;;9.00;8.00;;;20.30;99.90;;;20.69;57.20;102195.00;5075478;28;20526;-67
2023/06/05 09:07:46;;;;;;;12.00;8.38;;;20.40;99.90;;;20.95;56.72;102197.00;5083758;28;20265;-67
2023/06/05 09:10:25;;;;;;;11.30;8.60;;;20.50;99.90;;;20.74;56.54;102201.13;5081525;28;20037;-67
2023/06/05 09:12:55;;;;;;;9.90;8.30;;;20.40;99.90;;;20.90;57.03;102196.25;5081604;28;20040;-68
2023/06/05 09:15:24;;;;;;;;;;;20.60;99.90;;;20.83;55.74;102173.97;5084652;28;20048;-68
2023/06/05 09:18:11;;;;;;;9.48;7.90;;;20.80;99.90;;;21.17;56.61;102209.00;5076100;28;20031;-68
2023/06/05 09:20:45;;;;;;;10.27;8.25;;;20.80;99.90;;;21.26;55.86;102206.94;5081224;28;20049;-68
2023/06/05 09:23:26;;;;;;;11.93;7.70;;;20.90;99.90;;;21.43;55.37;102209.16;5076914;28;20052;-68
2023/06/05 09:25:59;;;;;;;10.40;7.88;;;21.10;99.90;;;21.49;55.02;102206.31;5080764;28;20512;-68
2023/06/05 09:28:27;;;;;;;9.80;7.75;;;21.20;99.90;;;21.62;54.54;102194.28;5083619;28;20068;-68
2023/06/05 09:30:58;;;;;;;10.10;8.30;;;21.30;99.90;;;21.69;54.07;102187.78;5080541;28;20051;-68
2023/06/05 09:33:28;;;;;;;9.60;7.68;;;21.40;99.90;;;21.87;54.06;102187.28;5077128;28;20069;-68
2023/06/05 09:36:07;;;;;;;9.05;7.45;;;21.50;99.90;;;21.90;53.25;102195.25;5083563;28;20044;-68
2023/06/05 09:38:37;;;;;;;9.13;8.23;;;21.60;99.90;;;21.77;52.57;102199.22;5084328;28;20044;-68
2023/06/05 09:41:07;;;;;;;10.43;7.85;;;21.50;99.90;;;21.62;54.42;102191.59;5100643;28;20075;-67
2023/06/05 09:43:37;;;;;;;10.57;7.30;;;21.30;99.90;;;21.84;54.76;102191.84;5103767;28;20044;-67
2023/06/05 09:46:10;;;;;;;9.98;8.20;;;21.40;99.90;;;21.64;53.80;102189.69;5080147;28;20106;-68
2023/06/05 09:48:40;;;;;;;9.93;8.07;;;21.40;99.90;;;21.76;53.73;102180.38;5086741;28;20048;-68
2023/06/05 09:51:15;;;;;;;9.93;7.00;;;21.40;99.90;;;22.00;53.19;102191.38;5086571;28;20098;-68
2023/06/05 09:53:45;;;;;;;8.88;7.82;;;21.60;99.90;;;22.20;52.76;102199.69;5084627;28;20401;-68
2023/06/05 09:56:16;;;;;;;9.15;7.88;;;21.80;99.90;;;22.36;52.06;102210.88;5080507;28;20406;-68
2023/06/05 09:58:47;;;;;;;8.30;7.50;;;22.00;99.90;;;22.45;51.57;102200.69;5081266;28;20102;-68
2023/06/05 10:01:22;;;;;;;8.55;7.70;;;22.20;99.90;;;22.40;50.92;102201.78;5086406;28;20051;-68
2023/06/05 10:03:58;;;;;;;8.65;7.75;;;22.20;99.90;;;22.01;52.89;102181.47;5102415;28;20974;-68
2023/06/05 10:06:29;;;;;;;8.93;7.85;;;21.90;99.90;;;22.07;52.49;102189.34;5080018;28;20110;-68
2023/06/05 10:09:00;;;;;;;8.70;7.32;;;21.80;99.90;;;22.18;52.32;102182.69;5087008;28;20200;-68
2023/06/05 10:11:28;;;;;;;9.13;8.20;;;21.90;99.90;;;21.99;52.72;102191.41;5085476;28;20049;-68
2023/06/05 10:13:59;;;;;;;8.02;7.20;;;21.70;99.90;;;22.31;53.54;102185.91;5118600;27;20558;-68
2023/06/05 10:16:28;;;;;;;9.32;7.75;;;22.00;99.90;;;22.56;52.75;102191.38;5085003;28;20074;-68